sensor_id;sensor_type;location;lat;lon;timestamp;P1;durP1;ratioP1;P2;durP2;ratioP2
30048;SDS011;16879;50.852;15.602;2023-04-15T00:02:15;19.20;;;13.05;;
30048;SDS011;16879;50.852;15.602;2023-04-15T00:04:43;15.32;;;11.27;;
30048;SDS011;16879;50.852;15.602;2023-04-15T00:07:10;18.67;;;11.75;;
30048;SDS011;16879;50.852;15.602;2023-04-15T00:09:36;18.75;;;12.85;;
30048;SDS011;16879;50.852;15.602;2023-04-15T00:12:03;22.73;;;14.93;;
30048;SDS011;16879;50.852;15.602;2023-04-15T00:14:29;41.67;;;25.05;;
30048;SDS011;16879;50.852;15.602;2023-04-15T00:16:56;45.22;;;26.83;;
30048;SDS011;16879;50.852;15.602;2023-04-15T00:19:22;36.25;;;22.85;;
30048;SDS011;16879;50.852;15.602;2023-04-15T00:21:49;28.42;;;19.10;;
30048;SDS011;16879;50.852;15.602;2023-04-15T00:24:15;23.27;;;14.60;;
30048;SDS011;16879;50.852;15.602;2023-04-15T00:26:41;21.05;;;14.60;;
30048;SDS011;16879;50.852;15.602;2023-04-15T00:29:09;29.50;;;19.17;;
30048;SDS011;16879;50.852;15.602;2023-04-15T00:31:35;26.45;;;17.05;;
30048;SDS011;16879;50.852;15.602;2023-04-15T00:34:01;21.75;;;14.43;;
30048;SDS011;16879;50.852;15.602;2023-04-15T00:36:27;16.58;;;10.35;;
30048;SDS011;16879;50.852;15.602;2023-04-15T00:38:53;12.32;;;8.23;;
30048;SDS011;16879;50.852;15.602;2023-04-15T00:41:22;16.15;;;9.90;;
30048;SDS011;16879;50.852;15.602;2023-04-15T00:43:49;14.63;;;9.90;;
30048;SDS011;16879;50.852;15.602;2023-04-15T00:46:16;14.13;;;9.48;;
30048;SDS011;16879;50.852;15.602;2023-04-15T00:48:44;14.48;;;10.30;;
30048;SDS011;16879;50.852;15.602;2023-04-15T00:51:11;13.15;;;8.68;;
30048;SDS011;16879;50.852;15.602;2023-04-15T00:53:38;13.57;;;9.13;;
30048;SDS011;16879;50.852;15.602;2023-04-15T00:56:05;13.35;;;9.32;;
30048;SDS011;16879;50.852;15.602;2023-04-15T00:58:32;13.27;;;9.00;;
30048;SDS011;16879;50.852;15.602;2023-04-15T01:00:58;12.30;;;8.15;;
30048;SDS011;16879;50.852;15.602;2023-04-15T01:03:24;11.43;;;8.02;;
30048;SDS011;16879;50.852;15.602;2023-04-15T01:05:51;12.57;;;9.20;;
30048;SDS011;16879;50.852;15.602;2023-04-15T01:08:25;10.65;;;7.70;;
30048;SDS011;16879;50.852;15.602;2023-04-15T01:10:53;10.90;;;7.20;;
30048;SDS011;16879;50.852;15.602;2023-04-15T01:13:23;11.73;;;8.35;;
30048;SDS011;16879;50.852;15.602;2023-04-15T01:15:49;16.92;;;11.63;;
30048;SDS011;16879;50.852;15.602;2023-04-15T01:18:16;12.98;;;9.02;;
30048;SDS011;16879;50.852;15.602;2023-04-15T01:20:43;10.18;;;7.82;;
30048;SDS011;16879;50.852;15.602;2023-04-15T01:23:10;9.95;;;7.18;;
30048;SDS011;16879;50.852;15.602;2023-04-15T01:25:36;14.70;;;9.73;;
30048;SDS011;16879;50.852;15.602;2023-04-15T01:28:02;11.85;;;7.63;;
30048;SDS011;16879;50.852;15.602;2023-04-15T01:30:32;11.95;;;9.55;;
30048;SDS011;16879;50.852;15.602;2023-04-15T01:32:58;13.15;;;9.55;;
30048;SDS011;16879;50.852;15.602;2023-04-15T01:35:25;10.55;;;8.77;;
30048;SDS011;16879;50.852;15.602;2023-04-15T01:37:52;9.45;;;7.40;;
30048;SDS011;16879;50.852;15.602;2023-04-15T01:40:18;12.95;;;9.52;;
30048;SDS011;16879;50.852;15.602;2023-04-15T01:42:45;17.48;;;12.30;;
30048;SDS011;16879;50.852;15.602;2023-04-15T01:45:11;14.43;;;12.10;;
30048;SDS011;16879;50.852;15.602;2023-04-15T01:47:38;12.70;;;10.13;;
30048;SDS011;16879;50.852;15.602;2023-04-15T01:50:04;13.82;;;9.85;;
30048;SDS011;16879;50.852;15.602;2023-04-15T01:52:31;12.18;;;9.48;;
30048;SDS011;16879;50.852;15.602;2023-04-15T01:54:57;12.30;;;9.23;;
30048;SDS011;16879;50.852;15.602;2023-04-15T01:57:24;12.73;;;8.18;;
30048;SDS011;16879;50.852;15.602;2023-04-15T01:59:50;14.55;;;8.73;;
30048;SDS011;16879;50.852;15.602;2023-04-15T02:02:16;12.15;;;8.82;;
30048;SDS011;16879;50.852;15.602;2023-04-15T02:04:42;10.93;;;7.28;;
30048;SDS011;16879;50.852;15.602;2023-04-15T02:07:09;7.28;;;5.93;;
30048;SDS011;16879;50.852;15.602;2023-04-15T02:09:35;7.20;;;5.95;;
30048;SDS011;16879;50.852;15.602;2023-04-15T02:12:01;7.63;;;5.50;;
30048;SDS011;16879;50.852;15.602;2023-04-15T02:14:27;5.57;;;4.65;;
30048;SDS011;16879;50.852;15.602;2023-04-15T02:16:53;4.82;;;4.05;;
30048;SDS011;16879;50.852;15.602;2023-04-15T02:19:20;4.40;;;4.00;;
30048;SDS011;16879;50.852;15.602;2023-04-15T02:21:46;4.15;;;3.75;;
30048;SDS011;16879;50.852;15.602;2023-04-15T02:24:12;5.68;;;4.30;;
30048;SDS011;16879;50.852;15.602;2023-04-15T02:26:38;5.95;;;3.88;;
30048;SDS011;16879;50.852;15.602;2023-04-15T02:29:04;7.07;;;4.63;;
30048;SDS011;16879;50.852;15.602;2023-04-15T02:31:30;6.05;;;4.57;;
30048;SDS011;16879;50.852;15.602;2023-04-15T02:34:01;4.15;;;3.17;;
30048;SDS011;16879;50.852;15.602;2023-04-15T02:36:28;3.65;;;3.33;;
30048;SDS011;16879;50.852;15.602;2023-04-15T02:38:55;4.72;;;2.65;;
30048;SDS011;16879;50.852;15.602;2023-04-15T02:41:21;3.33;;;3.00;;
30048;SDS011;16879;50.852;15.602;2023-04-15T02:43:51;3.13;;;2.92;;
30048;SDS011;16879;50.852;15.602;2023-04-15T02:46:17;4.57;;;3.58;;
30048;SDS011;16879;50.852;15.602;2023-04-15T02:48:43;6.13;;;3.85;;
30048;SDS011;16879;50.852;15.602;2023-04-15T02:51:17;7.53;;;5.55;;
30048;SDS011;16879;50.852;15.602;2023-04-15T02:53:44;8.20;;;6.32;;
30048;SDS011;16879;50.852;15.602;2023-04-15T02:56:10;25.35;;;12.65;;
30048;SDS011;16879;50.852;15.602;2023-04-15T02:58:38;20.25;;;10.10;;
30048;SDS011;16879;50.852;15.602;2023-04-15T03:01:04;13.50;;;8.15;;
30048;SDS011;16879;50.852;15.602;2023-04-15T03:03:32;15.40;;;9.05;;
30048;SDS011;16879;50.852;15.602;2023-04-15T03:05:59;36.15;;;16.33;;
30048;SDS011;16879;50.852;15.602;2023-04-15T03:08:25;26.98;;;11.70;;
30048;SDS011;16879;50.852;15.602;2023-04-15T03:10:51;19.33;;;9.50;;
30048;SDS011;16879;50.852;15.602;2023-04-15T03:13:18;13.80;;;7.90;;
30048;SDS011;16879;50.852;15.602;2023-04-15T03:15:45;11.68;;;6.88;;
30048;SDS011;16879;50.852;15.602;2023-04-15T03:18:12;14.40;;;8.23;;
30048;SDS011;16879;50.852;15.602;2023-04-15T03:20:39;10.40;;;8.02;;
30048;SDS011;16879;50.852;15.602;2023-04-15T03:23:05;12.70;;;7.47;;
30048;SDS011;16879;50.852;15.602;2023-04-15T03:25:31;30.00;;;15.98;;
30048;SDS011;16879;50.852;15.602;2023-04-15T03:27:58;28.80;;;16.27;;
30048;SDS011;16879;50.852;15.602;2023-04-15T03:30:24;25.17;;;14.38;;
30048;SDS011;16879;50.852;15.602;2023-04-15T03:32:50;24.05;;;14.25;;
30048;SDS011;16879;50.852;15.602;2023-04-15T03:35:16;28.70;;;16.10;;
30048;SDS011;16879;50.852;15.602;2023-04-15T03:37:43;28.73;;;16.60;;
30048;SDS011;16879;50.852;15.602;2023-04-15T03:40:09;24.02;;;14.55;;
30048;SDS011;16879;50.852;15.602;2023-04-15T03:42:38;28.35;;;15.63;;
30048;SDS011;16879;50.852;15.602;2023-04-15T03:45:04;29.40;;;14.65;;
30048;SDS011;16879;50.852;15.602;2023-04-15T03:47:34;25.25;;;16.50;;
30048;SDS011;16879;50.852;15.602;2023-04-15T03:50:00;28.23;;;16.42;;
30048;SDS011;16879;50.852;15.602;2023-04-15T03:52:26;27.67;;;16.67;;
30048;SDS011;16879;50.852;15.602;2023-04-15T03:54:53;34.00;;;18.15;;
30048;SDS011;16879;50.852;15.602;2023-04-15T03:57:19;27.10;;;16.75;;
30048;SDS011;16879;50.852;15.602;2023-04-15T03:59:45;24.92;;;16.20;;
30048;SDS011;16879;50.852;15.602;2023-04-15T04:02:11;27.63;;;15.63;;
30048;SDS011;16879;50.852;15.602;2023-04-15T04:04:38;20.42;;;11.13;;
30048;SDS011;16879;50.852;15.602;2023-04-15T04:07:07;22.27;;;13.75;;
30048;SDS011;16879;50.852;15.602;2023-04-15T04:09:34;29.55;;;15.32;;
30048;SDS011;16879;50.852;15.602;2023-04-15T04:12:00;23.73;;;12.90;;
30048;SDS011;16879;50.852;15.602;2023-04-15T04:14:28;22.90;;;12.80;;
30048;SDS011;16879;50.852;15.602;2023-04-15T04:16:54;22.65;;;11.45;;
30048;SDS011;16879;50.852;15.602;2023-04-15T04:19:21;18.30;;;10.80;;
30048;SDS011;16879;50.852;15.602;2023-04-15T04:21:50;20.15;;;9.75;;
30048;SDS011;16879;50.852;15.602;2023-04-15T04:24:17;16.75;;;9.20;;
30048;SDS011;16879;50.852;15.602;2023-04-15T04:26:43;15.10;;;9.52;;
30048;SDS011;16879;50.852;15.602;2023-04-15T04:29:09;18.48;;;11.73;;
30048;SDS011;16879;50.852;15.602;2023-04-15T04:31:35;14.07;;;9.93;;
30048;SDS011;16879;50.852;15.602;2023-04-15T04:34:01;22.25;;;12.40;;
30048;SDS011;16879;50.852;15.602;2023-04-15T04:36:27;24.75;;;14.45;;
30048;SDS011;16879;50.852;15.602;2023-04-15T04:38:53;23.33;;;14.40;;
30048;SDS011;16879;50.852;15.602;2023-04-15T04:41:20;20.88;;;11.95;;
30048;SDS011;16879;50.852;15.602;2023-04-15T04:43:46;18.75;;;10.90;;
30048;SDS011;16879;50.852;15.602;2023-04-15T04:46:12;16.23;;;10.35;;
30048;SDS011;16879;50.852;15.602;2023-04-15T04:48:38;16.13;;;10.32;;
30048;SDS011;16879;50.852;15.602;2023-04-15T04:51:05;19.00;;;11.00;;
30048;SDS011;16879;50.852;15.602;2023-04-15T04:53:31;17.60;;;11.75;;
30048;SDS011;16879;50.852;15.602;2023-04-15T04:55:58;21.95;;;11.93;;
30048;SDS011;16879;50.852;15.602;2023-04-15T04:58:24;17.65;;;11.27;;
30048;SDS011;16879;50.852;15.602;2023-04-15T05:00:50;17.10;;;10.40;;
30048;SDS011;16879;50.852;15.602;2023-04-15T05:03:17;18.58;;;12.27;;
30048;SDS011;16879;50.852;15.602;2023-04-15T05:05:43;8.20;;;6.25;;
30048;SDS011;16879;50.852;15.602;2023-04-15T05:08:09;8.73;;;5.95;;
30048;SDS011;16879;50.852;15.602;2023-04-15T05:10:35;6.85;;;5.20;;
30048;SDS011;16879;50.852;15.602;2023-04-15T05:13:01;5.85;;;4.70;;
30048;SDS011;16879;50.852;15.602;2023-04-15T05:15:27;7.63;;;4.38;;
30048;SDS011;16879;50.852;15.602;2023-04-15T05:17:53;13.63;;;7.28;;
30048;SDS011;16879;50.852;15.602;2023-04-15T05:20:20;13.00;;;9.43;;
30048;SDS011;16879;50.852;15.602;2023-04-15T05:22:46;14.13;;;8.98;;
30048;SDS011;16879;50.852;15.602;2023-04-15T05:25:12;12.40;;;9.15;;
30048;SDS011;16879;50.852;15.602;2023-04-15T05:27:38;15.73;;;10.95;;
30048;SDS011;16879;50.852;15.602;2023-04-15T05:30:04;17.15;;;11.88;;
30048;SDS011;16879;50.852;15.602;2023-04-15T05:32:31;14.43;;;10.30;;
30048;SDS011;16879;50.852;15.602;2023-04-15T05:34:57;14.43;;;10.07;;
30048;SDS011;16879;50.852;15.602;2023-04-15T05:37:23;18.50;;;11.43;;
30048;SDS011;16879;50.852;15.602;2023-04-15T05:39:50;18.75;;;12.93;;
30048;SDS011;16879;50.852;15.602;2023-04-15T05:42:16;14.63;;;10.07;;
30048;SDS011;16879;50.852;15.602;2023-04-15T05:44:42;11.57;;;9.05;;
30048;SDS011;16879;50.852;15.602;2023-04-15T05:47:08;9.00;;;6.75;;
30048;SDS011;16879;50.852;15.602;2023-04-15T05:49:35;8.25;;;5.82;;
30048;SDS011;16879;50.852;15.602;2023-04-15T05:52:01;8.27;;;7.32;;
30048;SDS011;16879;50.852;15.602;2023-04-15T05:54:27;7.43;;;6.63;;
30048;SDS011;16879;50.852;15.602;2023-04-15T05:56:56;9.00;;;6.25;;
30048;SDS011;16879;50.852;15.602;2023-04-15T05:59:23;8.40;;;6.43;;
30048;SDS011;16879;50.852;15.602;2023-04-15T06:01:49;7.80;;;6.18;;
30048;SDS011;16879;50.852;15.602;2023-04-15T06:04:16;5.82;;;5.15;;
30048;SDS011;16879;50.852;15.602;2023-04-15T06:06:42;8.00;;;4.40;;
30048;SDS011;16879;50.852;15.602;2023-04-15T06:09:08;5.47;;;4.10;;
30048;SDS011;16879;50.852;15.602;2023-04-15T06:11:35;4.75;;;3.40;;
30048;SDS011;16879;50.852;15.602;2023-04-15T06:14:01;10.15;;;5.18;;
30048;SDS011;16879;50.852;15.602;2023-04-15T06:16:27;3.03;;;2.75;;
30048;SDS011;16879;50.852;15.602;2023-04-15T06:18:53;5.00;;;3.00;;
30048;SDS011;16879;50.852;15.602;2023-04-15T06:21:19;3.67;;;2.95;;
30048;SDS011;16879;50.852;15.602;2023-04-15T06:23:45;6.45;;;3.33;;
30048;SDS011;16879;50.852;15.602;2023-04-15T06:26:11;4.53;;;3.28;;
30048;SDS011;16879;50.852;15.602;2023-04-15T06:28:37;5.40;;;3.38;;
30048;SDS011;16879;50.852;15.602;2023-04-15T06:31:03;4.00;;;3.17;;
30048;SDS011;16879;50.852;15.602;2023-04-15T06:33:30;3.22;;;2.88;;
30048;SDS011;16879;50.852;15.602;2023-04-15T06:35:56;4.25;;;2.90;;
30048;SDS011;16879;50.852;15.602;2023-04-15T06:38:22;2.75;;;2.42;;
30048;SDS011;16879;50.852;15.602;2023-04-15T06:40:49;3.63;;;2.92;;
30048;SDS011;16879;50.852;15.602;2023-04-15T06:43:15;3.33;;;3.03;;
30048;SDS011;16879;50.852;15.602;2023-04-15T06:45:41;3.05;;;2.65;;
30048;SDS011;16879;50.852;15.602;2023-04-15T06:48:08;3.17;;;2.55;;
30048;SDS011;16879;50.852;15.602;2023-04-15T06:50:34;3.08;;;2.88;;
30048;SDS011;16879;50.852;15.602;2023-04-15T06:53:00;3.28;;;2.67;;
30048;SDS011;16879;50.852;15.602;2023-04-15T06:55:27;4.00;;;3.13;;
30048;SDS011;16879;50.852;15.602;2023-04-15T06:57:53;3.33;;;2.60;;
30048;SDS011;16879;50.852;15.602;2023-04-15T07:00:19;6.50;;;3.03;;
30048;SDS011;16879;50.852;15.602;2023-04-15T07:02:45;4.00;;;3.58;;
30048;SDS011;16879;50.852;15.602;2023-04-15T07:05:11;4.93;;;3.65;;
30048;SDS011;16879;50.852;15.602;2023-04-15T07:07:37;4.30;;;3.70;;
30048;SDS011;16879;50.852;15.602;2023-04-15T07:10:04;4.03;;;3.15;;
30048;SDS011;16879;50.852;15.602;2023-04-15T07:12:30;4.38;;;3.75;;
30048;SDS011;16879;50.852;15.602;2023-04-15T07:14:56;4.32;;;3.30;;
30048;SDS011;16879;50.852;15.602;2023-04-15T07:17:22;3.67;;;3.03;;
30048;SDS011;16879;50.852;15.602;2023-04-15T07:19:49;4.95;;;3.45;;
30048;SDS011;16879;50.852;15.602;2023-04-15T07:22:15;4.90;;;3.08;;
30048;SDS011;16879;50.852;15.602;2023-04-15T07:24:41;4.13;;;3.72;;
30048;SDS011;16879;50.852;15.602;2023-04-15T07:27:07;5.18;;;4.00;;
30048;SDS011;16879;50.852;15.602;2023-04-15T07:29:34;4.30;;;2.92;;
30048;SDS011;16879;50.852;15.602;2023-04-15T07:32:00;4.15;;;3.28;;
30048;SDS011;16879;50.852;15.602;2023-04-15T07:34:26;3.78;;;2.97;;
30048;SDS011;16879;50.852;15.602;2023-04-15T07:36:52;5.25;;;3.20;;
30048;SDS011;16879;50.852;15.602;2023-04-15T07:39:19;5.00;;;3.15;;
30048;SDS011;16879;50.852;15.602;2023-04-15T07:41:45;5.97;;;3.50;;
30048;SDS011;16879;50.852;15.602;2023-04-15T07:44:11;4.70;;;3.60;;
30048;SDS011;16879;50.852;15.602;2023-04-15T07:46:37;5.90;;;3.28;;
30048;SDS011;16879;50.852;15.602;2023-04-15T07:49:03;5.38;;;3.08;;
30048;SDS011;16879;50.852;15.602;2023-04-15T07:51:30;5.13;;;2.40;;
30048;SDS011;16879;50.852;15.602;2023-04-15T07:53:56;4.25;;;3.20;;
30048;SDS011;16879;50.852;15.602;2023-04-15T07:56:23;3.53;;;2.42;;
30048;SDS011;16879;50.852;15.602;2023-04-15T07:58:49;4.20;;;2.97;;
30048;SDS011;16879;50.852;15.602;2023-04-15T08:01:15;3.13;;;2.30;;
30048;SDS011;16879;50.852;15.602;2023-04-15T08:03:41;4.10;;;2.30;;
30048;SDS011;16879;50.852;15.602;2023-04-15T08:06:07;2.63;;;2.20;;
30048;SDS011;16879;50.852;15.602;2023-04-15T08:08:34;3.00;;;2.67;;
30048;SDS011;16879;50.852;15.602;2023-04-15T08:14:07;5.75;;;2.58;;
30048;SDS011;16879;50.852;15.602;2023-04-15T08:16:33;3.33;;;2.35;;
30048;SDS011;16879;50.852;15.602;2023-04-15T08:19:01;7.10;;;3.65;;
30048;SDS011;16879;50.852;15.602;2023-04-15T08:21:27;7.63;;;6.65;;
30048;SDS011;16879;50.852;15.602;2023-04-15T08:23:54;5.00;;;3.55;;
30048;SDS011;16879;50.852;15.602;2023-04-15T08:26:21;3.35;;;2.78;;
30048;SDS011;16879;50.852;15.602;2023-04-15T08:28:47;2.75;;;2.55;;
30048;SDS011;16879;50.852;15.602;2023-04-15T08:31:14;2.90;;;2.60;;
30048;SDS011;16879;50.852;15.602;2023-04-15T08:33:41;2.50;;;1.88;;
30048;SDS011;16879;50.852;15.602;2023-04-15T08:36:07;3.72;;;2.55;;
30048;SDS011;16879;50.852;15.602;2023-04-15T08:38:34;2.92;;;2.45;;
30048;SDS011;16879;50.852;15.602;2023-04-15T08:41:02;3.42;;;3.10;;
30048;SDS011;16879;50.852;15.602;2023-04-15T08:43:32;4.20;;;2.75;;
30048;SDS011;16879;50.852;15.602;2023-04-15T08:45:59;4.75;;;3.53;;
30048;SDS011;16879;50.852;15.602;2023-04-15T08:48:29;3.92;;;2.90;;
30048;SDS011;16879;50.852;15.602;2023-04-15T08:50:57;3.63;;;2.80;;
30048;SDS011;16879;50.852;15.602;2023-04-15T08:53:23;3.83;;;3.33;;
30048;SDS011;16879;50.852;15.602;2023-04-15T08:55:52;26.52;;;11.60;;
30048;SDS011;16879;50.852;15.602;2023-04-15T08:58:21;16.08;;;8.60;;
30048;SDS011;16879;50.852;15.602;2023-04-15T09:03:34;5.50;;;3.88;;
30048;SDS011;16879;50.852;15.602;2023-04-15T09:06:02;6.80;;;4.07;;
30048;SDS011;16879;50.852;15.602;2023-04-15T09:08:31;4.10;;;3.15;;
30048;SDS011;16879;50.852;15.602;2023-04-15T09:10:59;4.80;;;3.22;;
30048;SDS011;16879;50.852;15.602;2023-04-15T09:13:26;4.80;;;3.63;;
30048;SDS011;16879;50.852;15.602;2023-04-15T09:15:52;6.13;;;3.45;;
30048;SDS011;16879;50.852;15.602;2023-04-15T09:18:29;3.60;;;2.70;;
30048;SDS011;16879;50.852;15.602;2023-04-15T09:21:02;7.18;;;4.18;;
30048;SDS011;16879;50.852;15.602;2023-04-15T09:25:56;3.38;;;2.58;;
30048;SDS011;16879;50.852;15.602;2023-04-15T09:28:23;3.00;;;2.70;;
30048;SDS011;16879;50.852;15.602;2023-04-15T09:30:57;5.25;;;3.60;;
30048;SDS011;16879;50.852;15.602;2023-04-15T09:33:24;2.25;;;2.08;;
30048;SDS011;16879;50.852;15.602;2023-04-15T09:36:01;3.38;;;2.50;;
30048;SDS011;16879;50.852;15.602;2023-04-15T09:38:29;5.60;;;3.92;;
30048;SDS011;16879;50.852;15.602;2023-04-15T09:40:58;3.10;;;2.53;;
30048;SDS011;16879;50.852;15.602;2023-04-15T09:43:39;9.70;;;5.13;;
30048;SDS011;16879;50.852;15.602;2023-04-15T09:46:10;5.53;;;4.65;;
30048;SDS011;16879;50.852;15.602;2023-04-15T09:48:36;8.73;;;5.63;;
30048;SDS011;16879;50.852;15.602;2023-04-15T09:51:02;8.52;;;5.30;;
30048;SDS011;16879;50.852;15.602;2023-04-15T09:53:38;6.78;;;4.60;;
30048;SDS011;16879;50.852;15.602;2023-04-15T09:56:04;6.30;;;4.53;;
30048;SDS011;16879;50.852;15.602;2023-04-15T09:58:34;6.13;;;4.65;;
30048;SDS011;16879;50.852;15.602;2023-04-15T10:01:03;6.25;;;4.28;;
30048;SDS011;16879;50.852;15.602;2023-04-15T10:03:33;10.65;;;6.00;;
30048;SDS011;16879;50.852;15.602;2023-04-15T10:06:02;4.60;;;3.95;;
30048;SDS011;16879;50.852;15.602;2023-04-15T10:08:30;2.35;;;2.15;;
30048;SDS011;16879;50.852;15.602;2023-04-15T10:10:58;2.60;;;2.25;;
30048;SDS011;16879;50.852;15.602;2023-04-15T10:13:25;3.17;;;2.28;;
30048;SDS011;16879;50.852;15.602;2023-04-15T10:16:11;5.80;;;4.68;;
30048;SDS011;16879;50.852;15.602;2023-04-15T10:18:42;5.07;;;3.47;;
30048;SDS011;16879;50.852;15.602;2023-04-15T10:21:09;3.20;;;2.90;;
30048;SDS011;16879;50.852;15.602;2023-04-15T10:23:35;2.45;;;2.20;;
30048;SDS011;16879;50.852;15.602;2023-04-15T10:26:01;2.33;;;2.13;;
30048;SDS011;16879;50.852;15.602;2023-04-15T10:28:28;2.47;;;2.28;;
30048;SDS011;16879;50.852;15.602;2023-04-15T10:30:54;2.83;;;2.22;;
30048;SDS011;16879;50.852;15.602;2023-04-15T10:33:22;2.70;;;1.98;;
30048;SDS011;16879;50.852;15.602;2023-04-15T10:35:49;2.63;;;2.00;;
30048;SDS011;16879;50.852;15.602;2023-04-15T10:38:35;2.63;;;2.05;;
30048;SDS011;16879;50.852;15.602;2023-04-15T10:41:14;2.20;;;2.00;;
30048;SDS011;16879;50.852;15.602;2023-04-15T10:44:00;1.67;;;1.35;;
30048;SDS011;16879;50.852;15.602;2023-04-15T10:46:44;2.53;;;2.00;;
30048;SDS011;16879;50.852;15.602;2023-04-15T10:49:12;2.55;;;1.70;;
30048;SDS011;16879;50.852;15.602;2023-04-15T10:51:39;1.98;;;1.67;;
30048;SDS011;16879;50.852;15.602;2023-04-15T10:54:13;1.75;;;1.65;;
30048;SDS011;16879;50.852;15.602;2023-04-15T10:56:47;1.70;;;1.60;;
30048;SDS011;16879;50.852;15.602;2023-04-15T10:59:16;1.85;;;1.58;;
30048;SDS011;16879;50.852;15.602;2023-04-15T11:01:52;1.55;;;1.35;;
30048;SDS011;16879;50.852;15.602;2023-04-15T11:12:52;1.40;;;1.30;;
30048;SDS011;16879;50.852;15.602;2023-04-15T11:15:35;1.50;;;1.40;;
30048;SDS011;16879;50.852;15.602;2023-04-15T11:18:21;1.20;;;1.10;;
30048;SDS011;16879;50.852;15.602;2023-04-15T11:20:54;1.63;;;1.33;;
30048;SDS011;16879;50.852;15.602;2023-04-15T11:25:56;2.15;;;1.95;;
30048;SDS011;16879;50.852;15.602;2023-04-15T11:28:27;3.22;;;2.13;;
30048;SDS011;16879;50.852;15.602;2023-04-15T11:30:53;3.05;;;1.83;;
30048;SDS011;16879;50.852;15.602;2023-04-15T11:33:20;3.53;;;2.08;;
30048;SDS011;16879;50.852;15.602;2023-04-15T11:35:46;3.28;;;1.55;;
30048;SDS011;16879;50.852;15.602;2023-04-15T11:38:14;2.30;;;1.60;;
30048;SDS011;16879;50.852;15.602;2023-04-15T11:40:41;3.78;;;2.15;;
30048;SDS011;16879;50.852;15.602;2023-04-15T11:45:34;4.15;;;2.35;;
30048;SDS011;16879;50.852;15.602;2023-04-15T11:48:21;4.10;;;2.83;;
30048;SDS011;16879;50.852;15.602;2023-04-15T11:50:57;3.20;;;2.83;;
30048;SDS011;16879;50.852;15.602;2023-04-15T11:53:25;3.80;;;3.42;;
30048;SDS011;16879;50.852;15.602;2023-04-15T11:56:01;3.10;;;2.80;;
30048;SDS011;16879;50.852;15.602;2023-04-15T11:58:27;3.75;;;2.95;;
30048;SDS011;16879;50.852;15.602;2023-04-15T12:00:55;4.30;;;2.97;;
30048;SDS011;16879;50.852;15.602;2023-04-15T12:03:27;4.97;;;3.38;;
30048;SDS011;16879;50.852;15.602;2023-04-15T12:11:15;4.68;;;3.90;;
30048;SDS011;16879;50.852;15.602;2023-04-15T12:13:45;7.57;;;4.97;;
30048;SDS011;16879;50.852;15.602;2023-04-15T12:16:16;4.65;;;4.05;;
30048;SDS011;16879;50.852;15.602;2023-04-15T12:18:49;4.53;;;3.65;;
30048;SDS011;16879;50.852;15.602;2023-04-15T12:21:24;4.28;;;3.25;;
30048;SDS011;16879;50.852;15.602;2023-04-15T12:23:53;5.03;;;3.88;;
30048;SDS011;16879;50.852;15.602;2023-04-15T12:26:27;4.32;;;3.83;;
30048;SDS011;16879;50.852;15.602;2023-04-15T12:28:59;4.30;;;3.72;;
30048;SDS011;16879;50.852;15.602;2023-04-15T12:31:26;4.90;;;4.50;;
30048;SDS011;16879;50.852;15.602;2023-04-15T12:33:56;6.40;;;4.10;;
30048;SDS011;16879;50.852;15.602;2023-04-15T12:36:22;6.97;;;4.43;;
30048;SDS011;16879;50.852;15.602;2023-04-15T12:38:49;4.65;;;3.95;;
30048;SDS011;16879;50.852;15.602;2023-04-15T12:41:15;6.78;;;4.50;;
30048;SDS011;16879;50.852;15.602;2023-04-15T12:43:43;5.05;;;3.78;;
30048;SDS011;16879;50.852;15.602;2023-04-15T12:46:09;5.43;;;3.30;;
30048;SDS011;16879;50.852;15.602;2023-04-15T12:48:35;3.60;;;3.25;;
30048;SDS011;16879;50.852;15.602;2023-04-15T12:51:01;2.50;;;2.30;;
30048;SDS011;16879;50.852;15.602;2023-04-15T12:53:28;4.15;;;3.08;;
30048;SDS011;16879;50.852;15.602;2023-04-15T12:55:54;4.05;;;2.67;;
30048;SDS011;16879;50.852;15.602;2023-04-15T12:58:20;29.38;;;15.35;;
30048;SDS011;16879;50.852;15.602;2023-04-15T13:00:46;6.97;;;4.38;;
30048;SDS011;16879;50.852;15.602;2023-04-15T13:03:13;13.45;;;8.23;;
30048;SDS011;16879;50.852;15.602;2023-04-15T13:05:40;7.60;;;4.72;;
30048;SDS011;16879;50.852;15.602;2023-04-15T13:08:06;25.17;;;17.50;;
30048;SDS011;16879;50.852;15.602;2023-04-15T13:10:33;22.45;;;15.02;;
30048;SDS011;16879;50.852;15.602;2023-04-15T13:13:02;18.42;;;7.85;;
30048;SDS011;16879;50.852;15.602;2023-04-15T13:15:28;15.80;;;7.70;;
30048;SDS011;16879;50.852;15.602;2023-04-15T13:17:55;6.97;;;4.03;;
30048;SDS011;16879;50.852;15.602;2023-04-15T13:20:21;11.38;;;5.18;;
30048;SDS011;16879;50.852;15.602;2023-04-15T13:22:47;10.02;;;5.32;;
30048;SDS011;16879;50.852;15.602;2023-04-15T13:25:13;12.15;;;6.32;;
30048;SDS011;16879;50.852;15.602;2023-04-15T13:27:39;4.50;;;2.70;;
30048;SDS011;16879;50.852;15.602;2023-04-15T13:30:05;5.03;;;2.83;;
30048;SDS011;16879;50.852;15.602;2023-04-15T13:32:32;3.92;;;3.00;;
30048;SDS011;16879;50.852;15.602;2023-04-15T13:34:58;4.32;;;3.08;;
30048;SDS011;16879;50.852;15.602;2023-04-15T13:37:25;5.22;;;3.42;;
30048;SDS011;16879;50.852;15.602;2023-04-15T13:39:52;4.07;;;2.80;;
30048;SDS011;16879;50.852;15.602;2023-04-15T13:42:18;4.03;;;2.28;;
30048;SDS011;16879;50.852;15.602;2023-04-15T13:44:45;3.65;;;2.83;;
30048;SDS011;16879;50.852;15.602;2023-04-15T13:47:11;3.38;;;2.45;;
30048;SDS011;16879;50.852;15.602;2023-04-15T13:49:39;5.72;;;3.17;;
30048;SDS011;16879;50.852;15.602;2023-04-15T13:52:05;5.93;;;4.03;;
30048;SDS011;16879;50.852;15.602;2023-04-15T13:54:31;11.85;;;9.00;;
30048;SDS011;16879;50.852;15.602;2023-04-15T13:56:57;6.80;;;4.63;;
30048;SDS011;16879;50.852;15.602;2023-04-15T13:59:23;11.30;;;6.57;;
30048;SDS011;16879;50.852;15.602;2023-04-15T14:01:50;13.20;;;7.78;;
30048;SDS011;16879;50.852;15.602;2023-04-15T14:04:17;10.88;;;6.47;;
30048;SDS011;16879;50.852;15.602;2023-04-15T14:06:43;10.02;;;5.82;;
30048;SDS011;16879;50.852;15.602;2023-04-15T14:09:09;14.32;;;7.70;;
30048;SDS011;16879;50.852;15.602;2023-04-15T14:11:37;15.93;;;9.13;;
30048;SDS011;16879;50.852;15.602;2023-04-15T14:14:03;14.55;;;6.80;;
30048;SDS011;16879;50.852;15.602;2023-04-15T14:16:31;12.50;;;7.22;;
30048;SDS011;16879;50.852;15.602;2023-04-15T14:18:57;6.40;;;4.47;;
30048;SDS011;16879;50.852;15.602;2023-04-15T14:21:24;7.28;;;4.50;;
30048;SDS011;16879;50.852;15.602;2023-04-15T14:23:52;3.30;;;2.70;;
30048;SDS011;16879;50.852;15.602;2023-04-15T14:26:18;4.82;;;3.05;;
30048;SDS011;16879;50.852;15.602;2023-04-15T14:28:44;7.97;;;3.38;;
30048;SDS011;16879;50.852;15.602;2023-04-15T14:31:12;4.10;;;3.22;;
30048;SDS011;16879;50.852;15.602;2023-04-15T14:33:38;3.75;;;2.95;;
30048;SDS011;16879;50.852;15.602;2023-04-15T14:36:05;4.05;;;2.83;;
30048;SDS011;16879;50.852;15.602;2023-04-15T14:38:35;4.30;;;3.10;;
30048;SDS011;16879;50.852;15.602;2023-04-15T14:41:05;4.22;;;2.92;;
30048;SDS011;16879;50.852;15.602;2023-04-15T14:43:32;2.72;;;2.00;;
30048;SDS011;16879;50.852;15.602;2023-04-15T14:45:58;3.88;;;2.45;;
30048;SDS011;16879;50.852;15.602;2023-04-15T14:48:25;3.10;;;2.78;;
30048;SDS011;16879;50.852;15.602;2023-04-15T14:50:51;7.55;;;4.22;;
30048;SDS011;16879;50.852;15.602;2023-04-15T14:53:18;2.88;;;2.50;;
30048;SDS011;16879;50.852;15.602;2023-04-15T14:55:44;5.40;;;3.40;;